sensor_id;sensor_type;location;lat;lon;timestamp;P1;P2;P0
68698;PMS7003;55680;48.850;2.310;2022-09-01T00:00:49;17.50;15.75;11.50
68698;PMS7003;55680;48.850;2.310;2022-09-01T00:03:18;14.00;13.00;11.00
68698;PMS7003;55680;48.850;2.310;2022-09-01T00:05:43;13.75;10.25;7.00
68698;PMS7003;55680;48.850;2.310;2022-09-01T00:08:10;15.50;12.50;10.75
68698;PMS7003;55680;48.850;2.310;2022-09-01T00:10:35;14.25;13.50;9.50
68698;PMS7003;55680;48.850;2.310;2022-09-01T00:13:01;13.75;11.00;9.50
68698;PMS7003;55680;48.850;2.310;2022-09-01T00:15:28;11.50;11.50;9.25
68698;PMS7003;55680;48.850;2.310;2022-09-01T00:17:53;16.25;13.25;9.00
68698;PMS7003;55680;48.850;2.310;2022-09-01T00:20:18;16.00;11.67;9.00
68698;PMS7003;55680;48.850;2.310;2022-09-01T00:22:44;15.25;12.25;10.00
68698;PMS7003;55680;48.850;2.310;2022-09-01T00:25:09;12.00;11.67;7.33
68698;PMS7003;55680;48.850;2.310;2022-09-01T00:27:34;15.67;12.33;9.00
68698;PMS7003;55680;48.850;2.310;2022-09-01T00:30:00;14.00;13.50;8.25
68698;PMS7003;55680;48.850;2.310;2022-09-01T00:32:26;18.25;13.50;10.75
68698;PMS7003;55680;48.850;2.310;2022-09-01T00:34:51;13.25;12.50;8.75
68698;PMS7003;55680;48.850;2.310;2022-09-01T00:37:16;14.67;14.00;10.67
68698;PMS7003;55680;48.850;2.310;2022-09-01T00:39:42;16.50;16.50;12.25
68698;PMS7003;55680;48.850;2.310;2022-09-01T00:42:07;15.00;14.00;10.33
68698;PMS7003;55680;48.850;2.310;2022-09-01T00:44:32;16.75;13.75;12.00
68698;PMS7003;55680;48.850;2.310;2022-09-01T00:47:00;15.00;14.50;9.00
68698;PMS7003;55680;48.850;2.310;2022-09-01T00:49:27;12.50;12.50;10.00
68698;PMS7003;55680;48.850;2.310;2022-09-01T00:51:54;21.00;16.00;11.25
68698;PMS7003;55680;48.850;2.310;2022-09-01T00:54:22;16.25;13.00;9.25
68698;PMS7003;55680;48.850;2.310;2022-09-01T00:56:48;14.50;12.75;11.25
68698;PMS7003;55680;48.850;2.310;2022-09-01T00:59:13;14.25;12.25;9.25
68698;PMS7003;55680;48.850;2.310;2022-09-01T01:01:40;12.00;11.00;7.00
68698;PMS7003;55680;48.850;2.310;2022-09-01T01:04:06;13.00;13.00;10.67
68698;PMS7003;55680;48.850;2.310;2022-09-01T01:06:38;16.25;10.00;8.75
68698;PMS7003;55680;48.850;2.310;2022-09-01T01:09:04;16.00;12.50;10.50
68698;PMS7003;55680;48.850;2.310;2022-09-01T01:11:30;18.00;14.67;10.00
68698;PMS7003;55680;48.850;2.310;2022-09-01T01:16:22;14.67;14.33;9.67
68698;PMS7003;55680;48.850;2.310;2022-09-01T01:18:48;17.00;15.50;10.50
68698;PMS7003;55680;48.850;2.310;2022-09-01T01:24:36;19.25;14.75;10.00
68698;PMS7003;55680;48.850;2.310;2022-09-01T01:26:55;14.50;13.00;12.00
68698;PMS7003;55680;48.850;2.310;2022-09-01T01:29:22;16.50;16.50;13.00
68698;PMS7003;55680;48.850;2.310;2022-09-01T01:31:48;16.00;14.50;8.00
68698;PMS7003;55680;48.850;2.310;2022-09-01T01:34:13;19.00;14.00;11.25
68698;PMS7003;55680;48.850;2.310;2022-09-01T01:36:38;14.50;10.50;8.00
68698;PMS7003;55680;48.850;2.310;2022-09-01T01:39:12;14.25;13.25;10.25
68698;PMS7003;55680;48.850;2.310;2022-09-01T01:41:39;20.75;16.00;10.75
68698;PMS7003;55680;48.850;2.310;2022-09-01T01:44:10;16.25;13.25;10.50
68698;PMS7003;55680;48.850;2.310;2022-09-01T01:46:38;19.25;16.50;12.00
68698;PMS7003;55680;48.850;2.310;2022-09-01T01:49:06;13.50;13.50;10.00
68698;PMS7003;55680;48.850;2.310;2022-09-01T01:51:32;15.75;12.75;9.25
68698;PMS7003;55680;48.850;2.310;2022-09-01T01:53:58;17.50;13.50;10.00
68698;PMS7003;55680;48.850;2.310;2022-09-01T01:56:26;11.25;11.00;10.00
68698;PMS7003;55680;48.850;2.310;2022-09-01T01:58:52;15.00;12.75;9.25
68698;PMS7003;55680;48.850;2.310;2022-09-01T02:01:18;16.50;13.50;10.00
68698;PMS7003;55680;48.850;2.310;2022-09-01T02:03:43;15.25;13.50;9.50
68698;PMS7003;55680;48.850;2.310;2022-09-01T02:06:09;10.67;10.67;9.00
68698;PMS7003;55680;48.850;2.310;2022-09-01T02:08:36;14.25;12.00;9.75
68698;PMS7003;55680;48.850;2.310;2022-09-01T02:11:02;16.75;11.75;8.75
68698;PMS7003;55680;48.850;2.310;2022-09-01T02:13:27;14.50;13.00;9.75
68698;PMS7003;55680;48.850;2.310;2022-09-01T02:15:55;13.75;11.75;8.75
68698;PMS7003;55680;48.850;2.310;2022-09-01T02:18:31;13.75;12.75;9.75
68698;PMS7003;55680;48.850;2.310;2022-09-01T02:20:59;13.00;13.00;10.50
68698;PMS7003;55680;48.850;2.310;2022-09-01T02:23:25;13.00;11.50;8.00
68698;PMS7003;55680;48.850;2.310;2022-09-01T02:25:53;12.75;12.75;8.25
68698;PMS7003;55680;48.850;2.310;2022-09-01T02:28:19;14.25;14.25;10.75
68698;PMS7003;55680;48.850;2.310;2022-09-01T02:30:47;14.00;13.00;8.75
68698;PMS7003;55680;48.850;2.310;2022-09-01T02:33:16;16.25;14.75;10.50
68698;PMS7003;55680;48.850;2.310;2022-09-01T02:35:45;13.25;12.50;9.00
68698;PMS7003;55680;48.850;2.310;2022-09-01T02:38:10;13.75;12.75;8.00
68698;PMS7003;55680;48.850;2.310;2022-09-01T02:40:38;16.00;10.75;9.50
68698;PMS7003;55680;48.850;2.310;2022-09-01T02:43:05;12.00;8.00;5.00
68698;PMS7003;55680;48.850;2.310;2022-09-01T02:45:30;14.00;13.00;11.67
68698;PMS7003;55680;48.850;2.310;2022-09-01T02:47:56;13.00;10.50;8.50
68698;PMS7003;55680;48.850;2.310;2022-09-01T02:50:22;15.67;13.00;10.33
68698;PMS7003;55680;48.850;2.310;2022-09-01T02:52:49;15.75;13.00;9.00
68698;PMS7003;55680;48.850;2.310;2022-09-01T02:55:16;13.75;13.75;10.00
68698;PMS7003;55680;48.850;2.310;2022-09-01T02:57:44;15.00;11.25;8.25
68698;PMS7003;55680;48.850;2.310;2022-09-01T03:00:11;16.50;12.25;8.00
68698;PMS7003;55680;48.850;2.310;2022-09-01T03:02:46;11.75;11.75;8.00
68698;PMS7003;55680;48.850;2.310;2022-09-01T03:05:11;15.50;14.00;11.00
68698;PMS7003;55680;48.850;2.310;2022-09-01T03:07:36;11.67;9.33;6.00
68698;PMS7003;55680;48.850;2.310;2022-09-01T03:10:02;17.25;10.00;8.75
68698;PMS7003;55680;48.850;2.310;2022-09-01T03:12:27;9.25;9.25;7.75
68698;PMS7003;55680;48.850;2.310;2022-09-01T03:14:52;16.33;13.33;10.00
68698;PMS7003;55680;48.850;2.310;2022-09-01T03:17:17;12.00;10.33;8.00
68698;PMS7003;55680;48.850;2.310;2022-09-01T03:19:43;11.25;11.25;8.50
68698;PMS7003;55680;48.850;2.310;2022-09-01T03:22:09;12.00;12.00;9.00
68698;PMS7003;55680;48.850;2.310;2022-09-01T03:24:34;17.67;11.67;8.33
68698;PMS7003;55680;48.850;2.310;2022-09-01T03:27:00;11.75;10.00;8.00
68698;PMS7003;55680;48.850;2.310;2022-09-01T03:29:25;16.75;12.50;9.25
68698;PMS7003;55680;48.850;2.310;2022-09-01T03:31:50;19.33;15.33;11.00
68698;PMS7003;55680;48.850;2.310;2022-09-01T03:34:15;13.67;11.67;8.67
68698;PMS7003;55680;48.850;2.310;2022-09-01T03:36:44;13.50;11.00;8.50
68698;PMS7003;55680;48.850;2.310;2022-09-01T03:39:14;13.25;10.50;7.50
68698;PMS7003;55680;48.850;2.310;2022-09-01T03:41:39;13.25;11.00;9.00
68698;PMS7003;55680;48.850;2.310;2022-09-01T03:44:05;14.50;11.75;8.50
68698;PMS7003;55680;48.850;2.310;2022-09-01T03:46:31;9.50;9.50;6.50
68698;PMS7003;55680;48.850;2.310;2022-09-01T03:48:57;18.00;15.00;11.00
68698;PMS7003;55680;48.850;2.310;2022-09-01T03:51:24;14.75;13.00;10.00
68698;PMS7003;55680;48.850;2.310;2022-09-01T03:53:50;14.00;11.25;9.25
68698;PMS7003;55680;48.850;2.310;2022-09-01T03:56:18;13.50;11.75;9.00
68698;PMS7003;55680;48.850;2.310;2022-09-01T03:58:43;13.75;13.75;10.00
68698;PMS7003;55680;48.850;2.310;2022-09-01T04:01:11;17.50;15.00;9.00
68698;PMS7003;55680;48.850;2.310;2022-09-01T04:03:36;14.00;13.50;9.50
68698;PMS7003;55680;48.850;2.310;2022-09-01T04:06:02;11.50;9.25;7.00
68698;PMS7003;55680;48.850;2.310;2022-09-01T04:08:27;10.25;9.00;6.00
68698;PMS7003;55680;48.850;2.310;2022-09-01T04:10:55;9.50;9.50;8.50
68698;PMS7003;55680;48.850;2.310;2022-09-01T04:13:35;12.75;10.25;9.00
68698;PMS7003;55680;48.850;2.310;2022-09-01T04:16:01;12.25;12.25;9.00
68698;PMS7003;55680;48.850;2.310;2022-09-01T04:18:27;13.25;13.25;9.00
68698;PMS7003;55680;48.850;2.310;2022-09-01T04:20:57;10.25;10.25;8.25
68698;PMS7003;55680;48.850;2.310;2022-09-01T04:23:24;13.50;12.00;8.50
68698;PMS7003;55680;48.850;2.310;2022-09-01T04:26:03;12.25;10.75;8.75
68698;PMS7003;55680;48.850;2.310;2022-09-01T04:28:33;11.50;10.00;9.00
68698;PMS7003;55680;48.850;2.310;2022-09-01T04:31:01;12.00;9.75;7.00
68698;PMS7003;55680;48.850;2.310;2022-09-01T04:33:30;10.00;7.50;7.25
68698;PMS7003;55680;48.850;2.310;2022-09-01T04:36:02;13.25;9.00;5.50
68698;PMS7003;55680;48.850;2.310;2022-09-01T04:38:28;12.00;10.50;8.25
68698;PMS7003;55680;48.850;2.310;2022-09-01T04:40:54;14.25;13.00;10.00
68698;PMS7003;55680;48.850;2.310;2022-09-01T04:43:21;15.00;13.00;8.50
68698;PMS7003;55680;48.850;2.310;2022-09-01T04:45:46;12.00;10.00;8.75
68698;PMS7003;55680;48.850;2.310;2022-09-01T04:48:16;11.75;10.75;7.50
68698;PMS7003;55680;48.850;2.310;2022-09-01T04:50:41;11.25;10.50;8.50
68698;PMS7003;55680;48.850;2.310;2022-09-01T04:53:06;9.00;9.00;7.50
68698;PMS7003;55680;48.850;2.310;2022-09-01T04:55:36;13.50;12.50;9.00
68698;PMS7003;55680;48.850;2.310;2022-09-01T04:58:02;13.25;10.50;8.25
68698;PMS7003;55680;48.850;2.310;2022-09-01T05:00:29;12.00;11.50;8.00
68698;PMS7003;55680;48.850;2.310;2022-09-01T05:02:57;12.00;11.50;8.75
68698;PMS7003;55680;48.850;2.310;2022-09-01T05:05:27;17.00;11.75;8.25
68698;PMS7003;55680;48.850;2.310;2022-09-01T05:07:52;12.25;10.50;8.25
68698;PMS7003;55680;48.850;2.310;2022-09-01T05:10:19;12.00;11.25;8.25
68698;PMS7003;55680;48.850;2.310;2022-09-01T05:12:45;10.00;10.00;7.75
68698;PMS7003;55680;48.850;2.310;2022-09-01T05:15:12;11.00;9.25;8.25
68698;PMS7003;55680;48.850;2.310;2022-09-01T05:17:38;16.00;10.00;8.50
68698;PMS7003;55680;48.850;2.310;2022-09-01T05:20:03;6.50;5.75;5.25
68698;PMS7003;55680;48.850;2.310;2022-09-01T05:22:29;9.25;9.25;7.50
68698;PMS7003;55680;48.850;2.310;2022-09-01T05:24:55;10.25;8.75;6.25
68698;PMS7003;55680;48.850;2.310;2022-09-01T05:27:20;17.50;7.25;5.50
68698;PMS7003;55680;48.850;2.310;2022-09-01T05:29:46;14.00;8.00;6.00
68698;PMS7003;55680;48.850;2.310;2022-09-01T05:32:14;10.75;9.00;7.25
68698;PMS7003;55680;48.850;2.310;2022-09-01T05:34:39;12.33;12.33;8.67
68698;PMS7003;55680;48.850;2.310;2022-09-01T05:37:06;10.75;8.25;6.00
68698;PMS7003;55680;48.850;2.310;2022-09-01T05:39:32;13.00;10.00;7.00
68698;PMS7003;55680;48.850;2.310;2022-09-01T05:41:59;11.00;10.25;6.75
68698;PMS7003;55680;48.850;2.310;2022-09-01T05:44:24;7.75;7.75;6.25
68698;PMS7003;55680;48.850;2.310;2022-09-01T05:46:50;10.50;10.50;8.00
68698;PMS7003;55680;48.850;2.310;2022-09-01T05:49:17;6.50;5.50;3.25
68698;PMS7003;55680;48.850;2.310;2022-09-01T05:51:44;10.00;10.00;8.25
68698;PMS7003;55680;48.850;2.310;2022-09-01T05:54:13;13.25;13.25;8.00
68698;PMS7003;55680;48.850;2.310;2022-09-01T05:56:39;10.00;9.50;6.50
68698;PMS7003;55680;48.850;2.310;2022-09-01T05:59:05;11.00;11.00;8.00
68698;PMS7003;55680;48.850;2.310;2022-09-01T06:01:30;16.25;11.25;8.00
68698;PMS7003;55680;48.850;2.310;2022-09-01T06:03:57;13.25;10.75;8.25
68698;PMS7003;55680;48.850;2.310;2022-09-01T06:06:25;12.25;9.50;7.25
68698;PMS7003;55680;48.850;2.310;2022-09-01T06:08:51;15.00;9.75;8.00
68698;PMS7003;55680;48.850;2.310;2022-09-01T06:11:17;10.50;10.50;8.00
68698;PMS7003;55680;48.850;2.310;2022-09-01T06:13:43;12.50;11.00;9.25
68698;PMS7003;55680;48.850;2.310;2022-09-01T06:16:08;12.00;10.25;7.25
68698;PMS7003;55680;48.850;2.310;2022-09-01T06:18:35;10.25;10.25;7.75
68698;PMS7003;55680;48.850;2.310;2022-09-01T06:21:04;11.00;8.67;6.00
68698;PMS7003;55680;48.850;2.310;2022-09-01T06:23:32;12.50;11.50;7.50
68698;PMS7003;55680;48.850;2.310;2022-09-01T06:25:57;14.25;12.50;9.25
68698;PMS7003;55680;48.850;2.310;2022-09-01T06:28:23;15.00;12.00;9.50
68698;PMS7003;55680;48.850;2.310;2022-09-01T06:30:49;11.00;10.50;9.25
68698;PMS7003;55680;48.850;2.310;2022-09-01T06:33:15;12.50;11.75;8.25
68698;PMS7003;55680;48.850;2.310;2022-09-01T06:35:41;9.75;8.75;6.25
68698;PMS7003;55680;48.850;2.310;2022-09-01T06:38:09;14.00;12.25;9.25
68698;PMS7003;55680;48.850;2.310;2022-09-01T06:40:35;14.75;11.75;7.75
68698;PMS7003;55680;48.850;2.310;2022-09-01T06:43:03;11.25;11.25;8.75
68698;PMS7003;55680;48.850;2.310;2022-09-01T06:45:32;7.50;6.00;3.25
68698;PMS7003;55680;48.850;2.310;2022-09-01T06:47:58;10.75;7.75;7.25
68698;PMS7003;55680;48.850;2.310;2022-09-01T06:50:24;11.50;11.50;8.75
68698;PMS7003;55680;48.850;2.310;2022-09-01T06:52:51;11.75;11.75;8.50
68698;PMS7003;55680;48.850;2.310;2022-09-01T06:55:25;12.00;11.50;8.25
68698;PMS7003;55680;48.850;2.310;2022-09-01T06:57:51;9.00;9.00;7.25
68698;PMS7003;55680;48.850;2.310;2022-09-01T07:00:18;11.75;11.00;7.00
68698;PMS7003;55680;48.850;2.310;2022-09-01T07:02:47;14.25;14.25;9.00
68698;PMS7003;55680;48.850;2.310;2022-09-01T07:05:17;9.50;9.00;6.75
68698;PMS7003;55680;48.850;2.310;2022-09-01T07:07:51;10.00;8.50;6.75
68698;PMS7003;55680;48.850;2.310;2022-09-01T07:10:18;18.00;12.00;8.50
68698;PMS7003;55680;48.850;2.310;2022-09-01T07:12:48;12.75;10.75;8.00
68698;PMS7003;55680;48.850;2.310;2022-09-01T07:15:14;12.00;9.25;8.75
68698;PMS7003;55680;48.850;2.310;2022-09-01T07:17:51;9.50;9.25;7.50
68698;PMS7003;55680;48.850;2.310;2022-09-01T07:20:18;15.00;11.25;8.25
68698;PMS7003;55680;48.850;2.310;2022-09-01T07:22:45;13.75;11.25;8.50
68698;PMS7003;55680;48.850;2.310;2022-09-01T07:25:10;12.00;9.50;7.50
68698;PMS7003;55680;48.850;2.310;2022-09-01T07:27:37;12.50;10.50;9.00
68698;PMS7003;55680;48.850;2.310;2022-09-01T07:30:03;15.50;11.75;8.75
68698;PMS7003;55680;48.850;2.310;2022-09-01T07:32:28;15.50;10.50;8.00
68698;PMS7003;55680;48.850;2.310;2022-09-01T07:34:54;15.25;14.00;8.25
68698;PMS7003;55680;48.850;2.310;2022-09-01T07:37:19;11.75;11.75;9.00
68698;PMS7003;55680;48.850;2.310;2022-09-01T07:39:46;18.75;14.25;10.50
68698;PMS7003;55680;48.850;2.310;2022-09-01T07:42:12;16.25;13.25;10.00
68698;PMS7003;55680;48.850;2.310;2022-09-01T07:44:41;10.50;7.75;6.75
68698;PMS7003;55680;48.850;2.310;2022-09-01T07:47:06;15.67;15.00;10.33
68698;PMS7003;55680;48.850;2.310;2022-09-01T07:49:33;15.75;15.25;8.75
68698;PMS7003;55680;48.850;2.310;2022-09-01T07:52:02;11.25;11.00;7.50
68698;PMS7003;55680;48.850;2.310;2022-09-01T07:54:27;15.25;11.50;9.00
68698;PMS7003;55680;48.850;2.310;2022-09-01T07:56:54;12.75;12.75;9.25
68698;PMS7003;55680;48.850;2.310;2022-09-01T07:59:19;14.50;12.00;9.00
68698;PMS7003;55680;48.850;2.310;2022-09-01T08:01:45;14.75;12.75;9.75
68698;PMS7003;55680;48.850;2.310;2022-09-01T08:04:11;10.25;10.00;7.75
68698;PMS7003;55680;48.850;2.310;2022-09-01T08:06:36;10.00;9.00;7.00
68698;PMS7003;55680;48.850;2.310;2022-09-01T08:09:02;14.50;11.25;8.25
68698;PMS7003;55680;48.850;2.310;2022-09-01T08:11:30;14.00;8.00;5.50
68698;PMS7003;55680;48.850;2.310;2022-09-01T08:13:56;18.00;14.50;9.50
68698;PMS7003;55680;48.850;2.310;2022-09-01T08:16:26;12.25;11.25;7.25
68698;PMS7003;55680;48.850;2.310;2022-09-01T08:18:52;10.00;10.00;7.25
68698;PMS7003;55680;48.850;2.310;2022-09-01T08:21:18;12.33;12.00;8.33
68698;PMS7003;55680;48.850;2.310;2022-09-01T08:23:45;15.25;11.75;9.25
68698;PMS7003;55680;48.850;2.310;2022-09-01T08:26:13;13.50;11.50;8.25
68698;PMS7003;55680;48.850;2.310;2022-09-01T08:28:38;12.25;10.25;9.00
68698;PMS7003;55680;48.850;2.310;2022-09-01T08:31:08;10.00;9.25;8.25
68698;PMS7003;55680;48.850;2.310;2022-09-01T08:33:34;11.50;11.50;7.00
68698;PMS7003;55680;48.850;2.310;2022-09-01T08:35:59;8.50;7.00;6.50
68698;PMS7003;55680;48.850;2.310;2022-09-01T08:38:25;11.00;9.50;7.25
68698;PMS7003;55680;48.850;2.310;2022-09-01T08:40:51;12.00;10.25;8.50
68698;PMS7003;55680;48.850;2.310;2022-09-01T08:43:23;11.50;10.50;7.25
68698;PMS7003;55680;48.850;2.310;2022-09-01T08:45:54;12.00;12.00;9.25
68698;PMS7003;55680;48.850;2.310;2022-09-01T08:50:48;14.25;12.50;10.00
68698;PMS7003;55680;48.850;2.310;2022-09-01T08:53:20;10.25;10.00;6.00
68698;PMS7003;55680;48.850;2.310;2022-09-01T08:55:48;12.25;10.25;7.00
68698;PMS7003;55680;48.850;2.310;2022-09-01T08:58:16;13.25;10.50;7.25
68698;PMS7003;55680;48.850;2.310;2022-09-01T09:00:43;11.50;10.25;8.00
68698;PMS7003;55680;48.850;2.310;2022-09-01T09:15:56;10.25;7.75;6.25
68698;PMS7003;55680;48.850;2.310;2022-09-01T09:20:50;8.75;8.00;6.75
68698;PMS7003;55680;48.850;2.310;2022-09-01T09:23:33;12.50;10.50;8.25
68698;PMS7003;55680;48.850;2.310;2022-09-01T09:26:00;8.25;8.25;6.50
68698;PMS7003;55680;48.850;2.310;2022-09-01T09:28:25;10.67;8.67;8.00
68698;PMS7003;55680;48.850;2.310;2022-09-01T09:30:50;15.33;11.33;7.33
68698;PMS7003;55680;48.850;2.310;2022-09-01T09:33:49;10.75;10.50;8.25
68698;PMS7003;55680;48.850;2.310;2022-09-01T09:36:49;12.75;12.75;9.25
68698;PMS7003;55680;48.850;2.310;2022-09-01T09:39:03;10.25;10.25;6.75
68698;PMS7003;55680;48.850;2.310;2022-09-01T09:41:28;14.00;10.50;8.50
68698;PMS7003;55680;48.850;2.310;2022-09-01T09:43:59;12.75;9.75;7.00
68698;PMS7003;55680;48.850;2.310;2022-09-01T09:49:10;12.50;11.25;8.00
68698;PMS7003;55680;48.850;2.310;2022-09-01T09:51:36;9.50;8.00;6.25
68698;PMS7003;55680;48.850;2.310;2022-09-01T09:54:13;13.25;13.25;10.00
68698;PMS7003;55680;48.850;2.310;2022-09-01T09:56:39;9.75;9.25;8.50
68698;PMS7003;55680;48.850;2.310;2022-09-01T09:59:15;9.50;9.50;6.00
68698;PMS7003;55680;48.850;2.310;2022-09-01T10:01:41;13.00;13.00;9.50
68698;PMS7003;55680;48.850;2.310;2022-09-01T10:04:07;11.50;10.50;8.50
68698;PMS7003;55680;48.850;2.310;2022-09-01T10:06:36;13.67;10.67;8.33
68698;PMS7003;55680;48.850;2.310;2022-09-01T10:09:04;9.25;9.25;6.75
68698;PMS7003;55680;48.850;2.310;2022-09-01T10:11:32;10.50;9.75;7.75
68698;PMS7003;55680;48.850;2.310;2022-09-01T10:14:00;11.00;11.00;7.50
68698;PMS7003;55680;48.850;2.310;2022-09-01T10:16:27;12.50;11.50;8.50
68698;PMS7003;55680;48.850;2.310;2022-09-01T10:18:55;14.75;13.75;9.25
68698;PMS7003;55680;48.850;2.310;2022-09-01T10:21:29;13.50;13.50;9.00
68698;PMS7003;55680;48.850;2.310;2022-09-01T10:23:57;14.25;12.75;10.25
68698;PMS7003;55680;48.850;2.310;2022-09-01T10:26:28;13.25;11.50;8.75
68698;PMS7003;55680;48.850;2.310;2022-09-01T10:29:05;11.50;11.50;9.00
68698;PMS7003;55680;48.850;2.310;2022-09-01T10:31:32;19.00;13.75;9.25
68698;PMS7003;55680;48.850;2.310;2022-09-01T10:33:58;14.00;11.75;7.50
68698;PMS7003;55680;48.850;2.310;2022-09-01T10:36:25;13.50;9.50;7.50
68698;PMS7003;55680;48.850;2.310;2022-09-01T10:38:51;9.50;9.50;7.50
68698;PMS7003;55680;48.850;2.310;2022-09-01T10:44:27;9.75;9.75;7.75
68698;PMS7003;55680;48.850;2.310;2022-09-01T10:46:59;10.00;9.50;8.00
68698;PMS7003;55680;48.850;2.310;2022-09-01T10:51:56;10.75;10.75;8.25
68698;PMS7003;55680;48.850;2.310;2022-09-01T10:57:39;9.75;8.00;6.00
68698;PMS7003;55680;48.850;2.310;2022-09-01T11:10:54;7.25;7.25;7.00
68698;PMS7003;55680;48.850;2.310;2022-09-01T11:13:35;7.25;7.25;5.50
68698;PMS7003;55680;48.850;2.310;2022-09-01T11:18:45;8.00;8.00;5.25
68698;PMS7003;55680;48.850;2.310;2022-09-01T11:21:15;8.25;8.25;6.00
68698;PMS7003;55680;48.850;2.310;2022-09-01T11:23:42;11.25;11.00;6.00
68698;PMS7003;55680;48.850;2.310;2022-09-01T11:28:51;12.25;7.75;6.00
68698;PMS7003;55680;48.850;2.310;2022-09-01T11:31:37;7.00;6.00;5.50
68698;PMS7003;55680;48.850;2.310;2022-09-01T11:34:12;5.25;4.25;3.25
68698;PMS7003;55680;48.850;2.310;2022-09-01T11:44:00;5.75;5.75;3.75
68698;PMS7003;55680;48.850;2.310;2022-09-01T11:46:27;9.00;8.25;6.25
68698;PMS7003;55680;48.850;2.310;2022-09-01T11:48:54;6.75;6.75;5.00
68698;PMS7003;55680;48.850;2.310;2022-09-01T11:51:20;6.25;6.25;4.50
68698;PMS7003;55680;48.850;2.310;2022-09-01T11:53:45;12.33;7.33;5.00
68698;PMS7003;55680;48.850;2.310;2022-09-01T11:56:17;5.50;4.00;3.00
68698;PMS7003;55680;48.850;2.310;2022-09-01T11:58:44;6.25;4.25;3.75
68698;PMS7003;55680;48.850;2.310;2022-09-01T12:01:14;12.00;7.00;4.25
68698;PMS7003;55680;48.850;2.310;2022-09-01T12:03:39;6.00;5.50;3.75
68698;PMS7003;55680;48.850;2.310;2022-09-01T12:06:06;5.75;4.50;3.50
68698;PMS7003;55680;48.850;2.310;2022-09-01T12:08:33;9.75;6.75;4.00
68698;PMS7003;55680;48.850;2.310;2022-09-01T12:11:06;8.50;5.75;4.00
68698;PMS7003;55680;48.850;2.310;2022-09-01T12:13:32;5.50;4.75;3.75
68698;PMS7003;55680;48.850;2.310;2022-09-01T12:15:59;6.75;6.75;4.75
68698;PMS7003;55680;48.850;2.310;2022-09-01T12:18:26;7.50;6.00;5.00
68698;PMS7003;55680;48.850;2.310;2022-09-01T12:20:52;4.75;4.75;3.25
68698;PMS7003;55680;48.850;2.310;2022-09-01T12:23:25;6.75;5.75;5.00
68698;PMS7003;55680;48.850;2.310;2022-09-01T12:25:55;6.25;6.25;4.75
68698;PMS7003;55680;48.850;2.310;2022-09-01T12:28:25;6.75;5.25;4.25
68698;PMS7003;55680;48.850;2.310;2022-09-01T12:30:51;6.25;4.25;3.00
68698;PMS7003;55680;48.850;2.310;2022-09-01T12:33:17;6.00;4.50;4.00
68698;PMS7003;55680;48.850;2.310;2022-09-01T12:35:44;6.50;5.00;4.50
68698;PMS7003;55680;48.850;2.310;2022-09-01T12:38:42;4.25;4.25;3.00
68698;PMS7003;55680;48.850;2.310;2022-09-01T12:41:00;5.50;5.50;4.50
68698;PMS7003;55680;48.850;2.310;2022-09-01T12:43:44;7.75;6.25;4.00
68698;PMS7003;55680;48.850;2.310;2022-09-01T12:46:09;4.50;4.00;3.00
68698;PMS7003;55680;48.850;2.310;2022-09-01T12:48:36;4.50;4.50;3.75
68698;PMS7003;55680;48.850;2.310;2022-09-01T12:53:52;7.25;5.50;4.00
68698;PMS7003;55680;48.850;2.310;2022-09-01T12:58:49;6.75;6.75;4.50
68698;PMS7003;55680;48.850;2.310;2022-09-01T13:01:25;7.75;5.75;4.50
68698;PMS7003;55680;48.850;2.310;2022-09-01T13:04:10;5.50;5.50;4.00
68698;PMS7003;55680;48.850;2.310;2022-09-01T13:06:36;5.00;5.00;4.00
68698;PMS7003;55680;48.850;2.310;2022-09-01T13:09:01;6.25;6.25;5.00
68698;PMS7003;55680;48.850;2.310;2022-09-01T13:11:27;7.50;6.25;4.75
68698;PMS7003;55680;48.850;2.310;2022-09-01T13:13:52;6.00;6.00;4.00
68698;PMS7003;55680;48.850;2.310;2022-09-01T13:16:17;6.00;6.00;4.75
68698;PMS7003;55680;48.850;2.310;2022-09-01T13:18:42;8.00;5.00;4.00
68698;PMS7003;55680;48.850;2.310;2022-09-01T13:21:08;10.25;8.00;5.25
68698;PMS7003;55680;48.850;2.310;2022-09-01T13:23:33;8.50;6.25;4.00
68698;PMS7003;55680;48.850;2.310;2022-09-01T13:25:59;6.75;5.00;3.75
68698;PMS7003;55680;48.850;2.310;2022-09-01T13:28:25;6.50;6.00;5.00
68698;PMS7003;55680;48.850;2.310;2022-09-01T13:30:54;7.75;5.75;5.00
68698;PMS7003;55680;48.850;2.310;2022-09-01T13:33:20;6.00;6.00;5.00
68698;PMS7003;55680;48.850;2.310;2022-09-01T13:35:46;8.00;5.50;4.00
68698;PMS7003;55680;48.850;2.310;2022-09-01T13:38:11;6.00;6.00;4.75
68698;PMS7003;55680;48.850;2.310;2022-09-01T13:40:40;8.75;7.00;5.00
68698;PMS7003;55680;48.850;2.310;2022-09-01T13:43:05;8.00;6.67;5.33
68698;PMS7003;55680;48.850;2.310;2022-09-01T13:45:30;9.50;8.25;5.50
68698;PMS7003;55680;48.850;2.310;2022-09-01T13:47:56;7.00;5.67;5.00
68698;PMS7003;55680;48.850;2.310;2022-09-01T13:50:21;9.00;7.50;6.00
68698;PMS7003;55680;48.850;2.310;2022-09-01T13:52:49;8.50;7.25;4.75
68698;PMS7003;55680;48.850;2.310;2022-09-01T13:55:17;7.00;7.00;5.25
68698;PMS7003;55680;48.850;2.310;2022-09-01T13:57:42;6.25;6.25;4.00
68698;PMS7003;55680;48.850;2.310;2022-09-01T14:00:09;9.33;6.00;4.00
68698;PMS7003;55680;48.850;2.310;2022-09-01T14:02:35;5.75;5.75;5.00
68698;PMS7003;55680;48.850;2.310;2022-09-01T14:05:01;6.75;5.00;4.25
68698;PMS7003;55680;48.850;2.310;2022-09-01T14:07:26;6.50;5.00;4.00
68698;PMS7003;55680;48.850;2.310;2022-09-01T14:09:52;6.00;6.00;5.00
68698;PMS7003;55680;48.850;2.310;2022-09-01T14:12:18;5.50;5.50;4.00
68698;PMS7003;55680;48.850;2.310;2022-09-01T14:14:44;7.00;5.50;3.50
68698;PMS7003;55680;48.850;2.310;2022-09-01T14:17:09;7.00;7.00;5.00
68698;PMS7003;55680;48.850;2.310;2022-09-01T14:19:34;6.00;6.00;5.00
68698;PMS7003;55680;48.850;2.310;2022-09-01T14:22:00;5.00;5.00;4.00
68698;PMS7003;55680;48.850;2.310;2022-09-01T14:24:30;6.75;6.00;4.75
68698;PMS7003;55680;48.850;2.310;2022-09-01T14:26:55;7.25;6.25;5.25
68698;PMS7003;55680;48.850;2.310;2022-09-01T14:29:20;7.50;6.75;6.00
68698;PMS7003;55680;48.850;2.310;2022-09-01T14:31:45;7.00;7.00;6.00
68698;PMS7003;55680;48.850;2.310;2022-09-01T14:34:11;10.00;9.00;5.00
68698;PMS7003;55680;48.850;2.310;2022-09-01T14:36:37;8.00;5.00;3.50
68698;PMS7003;55680;48.850;2.310;2022-09-01T14:39:02;6.75;6.50;5.25
68698;PMS7003;55680;48.850;2.310;2022-09-01T14:41:29;6.75;5.00;3.50
68698;PMS7003;55680;48.850;2.310;2022-09-01T14:43:54;6.50;6.50;5.00
68698;PMS7003;55680;48.850;2.310;2022-09-01T14:46:23;4.50;4.50;4.00
68698;PMS7003;55680;48.850;2.310;2022-09-01T14:48:49;6.75;6.25;5.00
68698;PMS7003;55680;48.850;2.310;2022-09-01T14:51:18;7.00;7.00;5.00
68698;PMS7003;55680;48.850;2.310;2022-09-01T14:53:44;8.75;6.25;5.25
68698;PMS7003;55680;48.850;2.310;2022-09-01T14:56:09;6.00;6.00;4.33
68698;PMS7003;55680;48.850;2.310;2022-09-01T14:58:34;7.00;6.00;5.00
68698;PMS7003;55680;48.850;2.310;2022-09-01T15:00:59;7.00;5.00;4.00
68698;PMS7003;55680;48.850;2.310;2022-09-01T15:03:25;6.00;6.00;5.00
68698;PMS7003;55680;48.850;2.310;2022-09-01T15:05:50;5.25;5.25;4.50
68698;PMS7003;55680;48.850;2.310;2022-09-01T15:08:15;8.00;6.00;4.00